Hlavní strana
METAR-TAF:

METAR-TAF

Letiště :

Clemson, Jižní Karolína, Spojené státy americké

zeměpisná šířka: 34-40-20N, zeměpisná délka: 082-52-53W, výška: 272 m

Aktuální stav počasí

Zpráva byla vytvořena před 56 minutami, v 09:54 UTC
Západní vítr 6 kt
Teplota 16°C
Vlhkost vzduchu 45%
Tlak 1019 hPa
Viditelnost: 16.1 km
Jasno

METAR: KCEU 300954Z AUTO 27006KT 10SM CLR 16/04 A3008 RMK AO2 SLP178 T01560044

Čas: 06:50 (10:50 UTC)


TAF: chybějící

Stav a předpovědi počasí z více než 4 000 letišť (zprávy METAR a TAF).

Červené a žluté tečky na mapě představují dostupné meteorologické stanice.

Když kurzor umístíte na tečku, zobrazí se název stanice.

Pak kliknutím zobrazíte stav a předpověď počasí.

Chcete-li změnit mapu, kliknutím na zelené tlačítko se znaménkem +mapu přiblížíte, kliknutím na zelené tlačítko se znaménkem – mapu oddálíte a kliknutím na zelené šipky přejdete na sousední mapy.


METAR-TAF: